Time;durP1;ratioP1;P1;durP2;ratioP2;P2;SDS_P1;SDS_P2;PMS_P1;PMS_P2;Temp;Humidity;BMP_temperature;BMP_pressure;BME280_temperature;BME280_humidity;BME280_pressure;Samples;Min_cycle;Max_cycle;Signal;HPM_P1;HPM_P2
2021/12/31 00:01:21;;;;;;;;;;;13.60;99.90;;;13.99;100.00;101192.38;4947379;29;19932;-82
2021/12/31 00:03:49;;;;;;;;;;;13.60;99.90;;;13.98;100.00;101193.28;4945962;29;19966;-80
2021/12/31 00:06:15;;;;;;;;;;;13.60;99.90;;;14.06;100.00;101190.44;4946821;28;19970;-81
2021/12/31 00:08:42;;;;;;;;;;;13.60;99.90;;;14.12;100.00;101200.00;4946905;28;20021;-81
2021/12/31 00:11:09;;;;;;;;;;;13.60;99.90;;;14.01;100.00;101192.34;4947117;28;19973;-80
2021/12/31 00:13:36;;;;;;;;;;;12.10;99.90;;;13.98;100.00;101184.47;4930561;28;20025;-80
2021/12/31 00:16:04;;;;;;;;;;;13.60;99.90;;;14.00;100.00;101182.66;4947197;29;20665;-80
2021/12/31 00:18:48;;;;;;;;;;;13.60;99.90;;;14.09;100.00;101192.16;4953224;28;19922;-80
2021/12/31 00:21:15;;;;;;;;;;;13.60;99.90;;;14.00;100.00;101190.59;4950256;28;20034;-80
2021/12/31 00:23:43;;;;;;;;;;;13.80;99.90;;;14.01;100.00;101197.63;4949399;28;19926;-80
2021/12/31 00:26:10;;;;;;;;;;;13.60;99.90;;;14.03;100.00;101194.00;4934335;28;19936;-82
2021/12/31 00:28:37;;;;;;;;;;;13.50;99.90;;;14.07;100.00;101201.91;4949904;28;20352;-81
2021/12/31 00:31:04;;;;;;;;;;;13.60;99.90;;;14.02;100.00;101194.06;4950411;28;19948;-79
2021/12/31 00:33:31;;;;;;;;;;;13.50;99.90;;;14.04;100.00;101192.25;4932914;28;20307;-79
2021/12/31 00:35:58;;;;;;;;;;;13.50;99.90;;;14.00;100.00;101191.44;4950168;28;19950;-81
2021/12/31 00:38:25;;;;;;;;;;;13.50;99.90;;;14.01;100.00;101189.69;4950140;28;19926;-79
2021/12/31 00:40:52;;;;;;;;;;;14.60;99.90;;;14.01;100.00;101190.53;4950209;28;19926;-80
2021/12/31 00:43:22;;;;;;;;;;;13.40;99.90;;;14.01;100.00;101192.34;4933408;28;19930;-81
2021/12/31 00:45:49;;;;;;;;;;;13.60;99.90;;;13.95;100.00;101187.19;4950187;28;19930;-79
2021/12/31 00:48:17;;;;;;;;;;;13.40;99.90;;;13.97;100.00;101193.28;4948761;28;19930;-81
2021/12/31 00:50:43;;;;;;;;;;;13.40;99.90;;;13.99;100.00;101194.16;4965530;28;20016;-80
2021/12/31 00:53:10;;;;;;;;;;;13.40;99.90;;;13.92;100.00;101195.19;4948729;28;19934;-81
2021/12/31 00:55:37;;;;;;;;;;;13.30;99.90;;;13.91;100.00;101194.34;4949840;28;19937;-80
2021/12/31 00:58:06;;;;;;;;;;;13.10;99.90;;;13.93;100.00;101189.00;4949852;28;19934;-80
2021/12/31 01:00:34;;;;;;;;;;;13.30;99.90;;;13.94;100.00;101196.91;4934010;28;20165;-80
2021/12/31 01:03:01;;;;;;;;;;;13.30;99.90;;;13.90;100.00;101192.63;4953058;28;20318;-83
2021/12/31 01:05:28;;;;;;;;;;;13.30;99.90;;;13.87;100.00;101193.53;4968429;28;20028;-81
2021/12/31 01:07:55;;;;;;;;;;;13.30;99.90;;;13.80;100.00;101202.53;4947871;29;20026;-82
2021/12/31 01:10:25;;;;;;;;;;;13.30;99.90;;;13.84;100.00;101200.69;4948732;29;19934;-82
2021/12/31 01:12:52;;;;;;;;;;;13.30;99.90;;;13.92;100.00;101197.84;4931675;28;19961;-82
2021/12/31 01:15:34;;;;;;;;;;;13.60;99.90;;;13.86;100.00;101193.56;4947957;28;19930;-82
2021/12/31 01:18:16;;;;;;;;;;;13.30;99.90;;;13.81;100.00;101190.19;4947972;28;19936;-83
2021/12/31 01:20:43;;;;;;;;;;;13.20;99.90;;;13.79;100.00;101198.13;4932552;28;20313;-81
2021/12/31 01:23:10;;;;;;;;;;;13.10;99.90;;;13.67;100.00;101183.44;4930803;29;20414;-81
2021/12/31 01:25:37;;;;;;;;;;;13.40;99.90;;;13.63;100.00;101183.56;4947924;28;19938;-81
2021/12/31 01:28:07;;;;;;;;;;;11.40;99.90;;;13.71;100.00;101182.47;4946465;29;19935;-80
2021/12/31 01:30:34;;;;;;;;;;;13.00;99.90;;;13.64;100.00;101190.56;4947818;29;19935;-80
2021/12/31 01:33:02;;;;;;;;;;;13.00;99.90;;;13.57;100.00;101192.50;4951501;28;19926;-80
2021/12/31 01:35:29;;;;;;;;;;;13.00;99.90;;;13.52;100.00;101189.97;4948066;29;20383;-80
2021/12/31 01:37:55;;;;;;;;;;;13.00;99.90;;;13.44;100.00;101183.97;4948034;29;19926;-81
2021/12/31 01:40:22;;;;;;;;;;;12.90;99.90;;;13.40;100.00;101179.66;4947375;29;19937;-81
2021/12/31 01:42:50;;;;;;;;;;;13.00;99.90;;;13.36;100.00;101193.84;4931381;29;20708;-80
2021/12/31 01:45:20;;;;;;;;;;;12.40;99.90;;;13.31;100.00;101175.44;4947094;29;19934;-83
2021/12/31 01:50:15;;;;;;;;;;;12.80;99.90;;;13.26;100.00;101182.59;4947436;28;19942;-82
2021/12/31 01:52:42;;;;;;;;;;;12.70;99.90;;;13.26;100.00;101193.16;4962031;28;19926;-81
2021/12/31 01:55:12;;;;;;;;;;;12.60;99.90;;;13.20;100.00;101188.91;4962573;28;19990;-83
2021/12/31 01:57:40;;;;;;;;;;;12.60;99.90;;;13.16;100.00;101195.13;4947730;28;20033;-80
2021/12/31 02:00:09;;;;;;;;;;;12.60;99.90;;;13.05;100.00;101184.78;4946946;28;19926;-81
2021/12/31 02:02:36;;;;;;;;;;;12.60;99.90;;;13.04;100.00;101191.00;4929869;28;20334;-83
2021/12/31 02:05:04;;;;;;;;;;;12.60;99.90;;;13.09;100.00;101199.69;4946085;28;19938;-80
2021/12/31 02:07:31;;;;;;;;;;;12.50;99.90;;;13.07;100.00;101198.00;4946896;29;20307;-81
2021/12/31 02:09:58;;;;;;;;;;;13.10;99.90;;;12.99;100.00;101185.78;4930725;29;20049;-81
2021/12/31 02:12:25;;;;;;;;;;;12.50;99.90;;;13.02;100.00;101191.00;4945282;28;19937;-80
2021/12/31 02:14:52;;;;;;;;;;;13.20;99.90;;;13.05;100.00;101192.72;4961709;28;19933;-83
2021/12/31 02:17:19;;;;;;;;;;;12.40;99.90;;;13.04;100.00;101196.28;4961828;28;19954;-80
2021/12/31 02:20:13;;;;;;;;;;;12.60;99.90;;;13.03;100.00;101199.81;4945971;28;20413;-82
2021/12/31 02:22:49;;;;;;;;;;;12.40;99.90;;;13.07;100.00;101195.34;4945151;28;19952;-82
2021/12/31 02:25:18;;;;;;;;;;;12.40;99.90;;;12.97;100.00;101203.44;4960171;28;20309;-82
2021/12/31 02:27:46;;;;;;;;;;;12.70;99.90;;;12.90;100.00;101192.13;4961624;28;20018;-80
2021/12/31 02:30:30;;;;;;;;;;;12.40;99.90;;;12.99;100.00;101199.00;4946127;28;19929;-81
2021/12/31 02:32:59;;;;;;;;;;;12.50;99.90;;;13.02;100.00;101192.78;4928834;29;19926;-81
2021/12/31 02:35:26;;;;;;;;;;;12.40;99.90;;;12.89;100.00;101185.13;4944989;28;20302;-81
2021/12/31 02:37:56;;;;;;;;;;;13.30;99.90;;;12.99;100.00;101187.59;4929524;29;19933;-83
2021/12/31 02:40:24;;;;;;;;;;;12.50;99.90;;;12.99;100.00;101191.06;4946007;29;19927;-81
2021/12/31 02:42:51;;;;;;;;;;;13.40;99.90;;;13.05;100.00;101195.38;4944626;28;20042;-82
2021/12/31 02:45:21;;;;;;;;;;;12.40;99.90;;;13.01;100.00;101198.97;4945470;29;20387;-81
2021/12/31 02:47:48;;;;;;;;;;;12.40;99.90;;;12.94;100.00;101200.00;4929995;29;19945;-81
2021/12/31 02:50:17;;;;;;;;;;;12.40;99.90;;;12.88;100.00;101188.66;4945491;29;20072;-80
2021/12/31 02:52:46;;;;;;;;;;;12.40;99.90;;;12.94;100.00;101192.06;4944590;28;19957;-79
2021/12/31 02:55:15;;;;;;;;;;;12.30;99.90;;;12.87;100.00;101189.56;4928858;29;19934;-80
2021/12/31 02:57:43;;;;;;;;;;;12.30;99.90;;;12.89;100.00;101189.53;4961107;28;19926;-80
2021/12/31 03:00:10;;;;;;;;;;;12.40;99.90;;;12.90;100.00;101191.28;4945778;29;20326;-81
2021/12/31 03:02:38;;;;;;;;;;;11.80;99.90;;;12.85;100.00;101191.38;4944278;28;19934;-83
2021/12/31 03:05:09;;;;;;;;;;;12.40;99.90;;;12.86;100.00;101184.31;4928827;29;19930;-81
2021/12/31 03:07:54;;;;;;;;;;;12.30;99.90;;;12.89;100.00;101200.97;4944957;28;19981;-82
2021/12/31 03:10:38;;;;;;;;;;;12.40;99.90;;;12.87;100.00;101196.59;4945087;29;20101;-80
2021/12/31 03:13:06;;;;;;;;;;;12.40;99.90;;;12.88;100.00;101203.66;4930321;28;19941;-79
2021/12/31 03:15:33;;;;;;;;;;;12.40;99.90;;;12.75;100.00;101205.66;4945678;29;19934;-81
2021/12/31 03:18:03;;;;;;;;;;;12.40;99.90;;;12.77;100.00;101207.38;4951873;29;19926;-79
2021/12/31 03:20:36;;;;;;;;;;;12.70;99.90;;;12.78;100.00;101210.88;4917029;29;20324;-81
2021/12/31 03:23:05;;;;;;;;;;;12.40;99.90;;;12.70;100.00;101202.25;4932638;28;19931;-80
2021/12/31 03:25:32;;;;;;;;;;;12.40;99.90;;;12.77;100.00;101214.41;4931521;29;19926;-81
2021/12/31 03:28:00;;;;;;;;;;;12.40;99.90;;;12.71;100.00;101207.47;4947675;29;19946;-80
2021/12/31 03:30:27;;;;;;;;;;;12.40;99.90;;;12.72;100.00;101217.16;4916603;29;19965;-80
2021/12/31 03:32:57;;;;;;;;;;;12.40;99.90;;;12.77;100.00;101225.84;4947473;28;19937;-80
2021/12/31 03:35:24;;;;;;;;;;;13.50;99.90;;;12.67;100.00;101208.44;4947702;29;20270;-80
2021/12/31 03:37:51;;;;;;;;;;;12.50;99.90;;;12.70;100.00;101221.56;4916717;28;19930;-82
2021/12/31 03:40:18;;;;;;;;;;;14.50;99.90;;;12.73;100.00;101218.03;4948348;29;19930;-80
2021/12/31 03:42:45;;;;;;;;;;;12.40;99.90;;;12.72;100.00;101217.16;4931451;29;19934;-81
2021/12/31 03:45:12;;;;;;;;;;;12.40;99.90;;;12.70;100.00;101204.88;4916299;29;19926;-82
2021/12/31 03:47:39;;;;;;;;;;;12.20;99.90;;;12.70;100.00;101203.09;4948167;29;20452;-80
2021/12/31 03:50:06;;;;;;;;;;;12.50;99.90;;;12.68;100.00;101198.78;4947737;29;19934;-81
2021/12/31 03:52:37;;;;;;;;;;;12.40;99.90;;;12.67;100.00;101211.09;4931672;29;20041;-81
2021/12/31 03:55:09;;;;;;;;;;;13.90;99.90;;;12.67;100.00;101216.38;4931507;29;20658;-81
2021/12/31 03:57:37;;;;;;;;;;;12.40;99.90;;;12.65;100.00;101202.31;4916702;29;19937;-83
2021/12/31 04:00:06;;;;;;;;;;;12.40;99.90;;;12.72;100.00;101203.06;4916450;29;19930;-82
2021/12/31 04:02:34;;;;;;;;;;;12.40;99.90;;;12.69;100.00;101192.59;4947334;29;20450;-81
2021/12/31 04:05:01;;;;;;;;;;;12.40;99.90;;;12.71;100.00;101196.91;4948196;28;19984;-81
2021/12/31 04:07:28;;;;;;;;;;;13.20;99.90;;;12.67;100.00;101197.03;4931640;29;19930;-80
2021/12/31 04:09:55;;;;;;;;;;;12.40;99.90;;;12.62;100.00;101191.81;4916535;29;19941;-81
2021/12/31 04:12:22;;;;;;;;;;;12.40;99.90;;;12.69;100.00;101198.72;4931302;29;20363;-81
2021/12/31 04:14:49;;;;;;;;;;;12.40;99.90;;;12.65;100.00;101183.00;4931383;29;20503;-80
2021/12/31 04:17:16;;;;;;;;;;;13.40;99.90;;;12.62;100.00;101179.47;4931575;29;19931;-81
2021/12/31 04:19:43;;;;;;;;;;;12.40;99.90;;;12.53;100.00;101194.63;4931685;29;19931;-81
2021/12/31 04:22:12;;;;;;;;;;;12.80;99.90;;;12.45;100.00;101174.56;4925735;28;19930;-80
2021/12/31 04:27:09;;;;;;;;;;;12.30;99.90;;;12.51;100.00;101191.16;4950835;28;19930;-81
2021/12/31 04:29:36;;;;;;;;;;;12.30;99.90;;;12.49;100.00;101185.94;4934750;28;20392;-81
2021/12/31 04:32:04;;;;;;;;;;;10.80;99.90;;;12.38;100.00;101185.25;4950259;28;19967;-80
2021/12/31 04:34:31;;;;;;;;;;;12.30;99.90;;;12.42;100.00;101179.88;4965091;28;19936;-82
2021/12/31 04:36:58;;;;;;;;;;;12.30;99.90;;;12.34;100.00;101179.16;4950638;28;19936;-80
2021/12/31 04:39:25;;;;;;;;;;;12.30;99.90;;;12.40;100.00;101171.09;4934831;28;19935;-81
2021/12/31 04:41:52;;;;;;;;;;;12.30;99.90;;;12.46;100.00;101183.31;4950256;28;20400;-80
2021/12/31 04:44:19;;;;;;;;;;;11.10;99.90;;;12.37;100.00;101170.31;4949323;28;19930;-81
2021/12/31 04:46:46;;;;;;;;;;;12.20;99.90;;;12.44;100.00;101182.47;4950664;28;19926;-80
2021/12/31 04:49:12;;;;;;;;;;;12.30;99.90;;;12.39;100.00;101168.50;4966177;28;19930;-81
2021/12/31 04:51:43;;;;;;;;;;;12.20;99.90;;;12.41;100.00;101166.72;4951418;28;20409;-80
2021/12/31 04:54:15;;;;;;;;;;;11.30;99.90;;;12.37;100.00;101172.94;4933245;28;20310;-79
2021/12/31 04:56:43;;;;;;;;;;;12.20;99.90;;;12.39;100.00;101173.78;4950591;28;19930;-81
2021/12/31 04:59:11;;;;;;;;;;;12.20;99.90;;;12.30;100.00;101149.31;4949819;28;19938;-81
2021/12/31 05:01:38;;;;;;;;;;;12.20;99.90;;;12.36;100.00;101156.22;4948609;28;19933;-82
2021/12/31 05:04:05;;;;;;;;;;;12.10;99.90;;;12.31;100.00;101151.03;4952223;28;19934;-81
2021/12/31 05:06:32;;;;;;;;;;;12.10;99.90;;;12.21;100.00;101149.50;4965775;28;19930;-80
2021/12/31 05:08:59;;;;;;;;;;;12.00;99.90;;;12.17;100.00;101140.75;4965252;28;20418;-80
2021/12/31 05:11:26;;;;;;;;;;;12.10;99.90;;;12.14;100.00;101142.56;4933608;28;19926;-82
2021/12/31 05:13:53;;;;;;;;;;;12.00;99.90;;;12.18;100.00;101141.63;4962601;28;19940;-80
2021/12/31 05:16:20;;;;;;;;;;;12.00;99.90;;;12.15;100.00;101155.75;4911600;29;19931;-81
2021/12/31 05:18:47;;;;;;;;;;;12.20;99.90;;;12.14;100.00;101153.13;4910799;29;19949;-80
2021/12/31 05:21:14;;;;;;;;;;;12.00;99.90;;;12.19;100.00;101157.41;4911203;29;19937;-80
2021/12/31 05:23:41;;;;;;;;;;;12.20;99.90;;;12.13;100.00;101154.91;4910296;29;19942;-80
2021/12/31 05:26:08;;;;;;;;;;;11.90;99.90;;;12.04;100.00;101144.50;4910905;29;19930;-79
2021/12/31 05:28:36;;;;;;;;;;;12.10;99.90;;;12.14;100.00;101166.31;4926917;29;19931;-80
2021/12/31 05:31:03;;;;;;;;;;;11.90;99.90;;;12.13;100.00;101154.91;4911643;29;20041;-81
2021/12/31 05:33:30;;;;;;;;;;;11.90;99.90;;;12.10;100.00;101154.09;4910460;29;19931;-81
2021/12/31 05:35:59;;;;;;;;;;;12.70;99.90;;;12.12;100.00;101145.25;4894882;29;19935;-80
2021/12/31 05:38:26;;;;;;;;;;;12.00;99.90;;;12.12;100.00;101152.28;4926237;29;20025;-81
2021/12/31 05:40:53;;;;;;;;;;;11.90;99.90;;;12.04;100.00;101145.38;4910703;29;19937;-79
2021/12/31 05:43:20;;;;;;;;;;;11.80;99.90;;;11.99;100.00;101148.97;4909578;29;20403;-80
2021/12/31 05:45:47;;;;;;;;;;;11.80;99.90;;;11.93;100.00;101142.03;4910678;29;20034;-82
2021/12/31 05:48:24;;;;;;;;;;;12.00;99.90;;;11.83;100.00;101150.97;4926857;29;20018;-81
2021/12/31 05:50:51;;;;;;;;;;;11.70;99.90;;;11.80;100.00;101144.00;4910599;29;19931;-80
2021/12/31 05:53:18;;;;;;;;;;;11.60;99.90;;;11.74;100.00;101147.63;4894136;28;19931;-80
2021/12/31 05:55:45;;;;;;;;;;;11.60;99.90;;;11.59;100.00;101138.19;4925980;29;20438;-81
2021/12/31 05:58:13;;;;;;;;;;;11.50;99.90;;;11.52;100.00;101128.63;4910015;29;19933;-80
2021/12/31 06:00:40;;;;;;;;;;;13.00;99.90;;;11.47;100.00;101131.34;4910741;29;19930;-82
2021/12/31 06:03:07;;;;;;;;;;;11.40;99.90;;;11.40;100.00;101144.63;4910368;29;19988;-82
2021/12/31 06:05:34;;;;;;;;;;;11.30;99.90;;;11.31;100.00;101146.50;4926683;29;19997;-81
2021/12/31 06:08:01;;;;;;;;;;;11.30;99.90;;;11.20;100.00;101148.44;4910209;29;19937;-81
2021/12/31 06:10:28;;;;;;;;;;;12.40;99.90;;;11.26;100.00;101164.13;4909991;29;20018;-81
2021/12/31 06:12:58;;;;;;;;;;;11.20;99.90;;;11.14;100.00;101164.31;4924685;28;19931;-79
2021/12/31 06:15:27;;;;;;;;;;;11.20;99.90;;;11.11;100.00;101162.59;4910254;29;19947;-79
2021/12/31 06:17:55;;;;;;;;;;;10.30;99.90;;;11.13;100.00;101170.47;4925774;29;19938;-80
2021/12/31 06:20:21;;;;;;;;;;;11.00;99.90;;;11.07;100.00;101174.94;4910744;29;20699;-80
2021/12/31 06:22:48;;;;;;;;;;;11.20;99.90;;;11.04;100.00;101182.00;4924922;29;19931;-80
2021/12/31 06:25:15;;;;;;;;;;;10.90;99.90;;;10.98;100.00;101190.84;4909661;29;20045;-80
2021/12/31 06:27:42;;;;;;;;;;;10.90;99.90;;;10.86;100.00;101191.03;4925650;29;20113;-79
2021/12/31 06:30:10;;;;;;;;;;;10.80;99.90;;;10.76;100.00;101196.38;4909606;29;19935;-80
2021/12/31 06:32:37;;;;;;;;;;;10.80;99.90;;;10.77;100.00;101190.22;4908854;29;19935;-79
2021/12/31 06:35:05;;;;;;;;;;;10.80;99.90;;;10.77;100.00;101197.22;4909673;29;20025;-79
2021/12/31 06:37:32;;;;;;;;;;;10.70;99.90;;;10.74;100.00;101194.63;4909643;28;19931;-80
2021/12/31 06:40:04;;;;;;;;;;;11.00;99.90;;;10.73;100.00;101192.91;4909674;29;20030;-80
2021/12/31 06:42:31;;;;;;;;;;;12.60;99.90;;;10.66;100.00;101193.88;4924788;29;19927;-81
2021/12/31 06:44:58;;;;;;;;;;;10.60;99.90;;;10.61;100.00;101196.56;4925036;29;19934;-79
2021/12/31 06:47:25;;;;;;;;;;;11.90;99.90;;;10.57;100.00;101189.59;4928238;29;19930;-80
2021/12/31 06:49:52;;;;;;;;;;;10.50;99.90;;;10.54;100.00;101184.38;4930279;29;19931;-81
2021/12/31 06:52:19;;;;;;;;;;;10.40;99.90;;;10.55;100.00;101180.84;4912713;29;19934;-81
2021/12/31 06:54:47;;;;;;;;;;;12.70;99.90;;;10.52;100.00;101181.72;4912566;29;19942;-80
2021/12/31 06:57:14;;;;;;;;;;;10.40;99.90;;;10.47;100.00;101183.56;4929333;29;19931;-80
2021/12/31 06:59:41;;;;;;;;;;;11.50;99.90;;;10.34;100.00;101164.34;4928929;29;19927;-80
2021/12/31 07:02:08;;;;;;;;;;;12.40;99.90;;;10.37;100.00;101166.94;4913258;29;19931;-80
2021/12/31 07:04:35;;;;;;;;;;;10.10;99.90;;;10.33;100.00;101171.38;4927634;29;19930;-81
2021/12/31 07:07:02;;;;;;;;;;;10.30;99.90;;;10.38;100.00;101187.13;4928595;29;19926;-81
2021/12/31 07:09:30;;;;;;;;;;;10.20;99.90;;;10.32;100.00;101181.91;4913235;29;19931;-81
2021/12/31 07:11:57;;;;;;;;;;;10.30;99.90;;;10.29;100.00;101180.16;4929123;28;20013;-81
2021/12/31 07:14:24;;;;;;;;;;;9.30;99.90;;;10.22;100.00;101186.38;4912053;29;19931;-81
2021/12/31 07:16:51;;;;;;;;;;;10.30;99.90;;;10.13;100.00;101179.44;4928713;29;20434;-80
2021/12/31 07:19:18;;;;;;;;;;;11.50;99.90;;;10.14;100.00;101186.44;4913442;29;19941;-79
2021/12/31 07:21:45;;;;;;;;;;;10.20;99.90;;;10.14;100.00;101188.19;4928933;29;19930;-80
2021/12/31 07:24:12;;;;;;;;;;;10.20;99.90;;;10.13;100.00;101184.72;4913101;29;19927;-82
2021/12/31 07:26:39;;;;;;;;;;;10.10;99.90;;;10.12;100.00;101176.81;4916116;29;19931;-80
2021/12/31 07:29:06;;;;;;;;;;;10.20;99.90;;;10.05;100.00;101183.88;4932757;29;19994;-82
2021/12/31 07:31:33;;;;;;;;;;;10.10;99.90;;;10.05;100.00;101189.16;4915683;29;20709;-83
2021/12/31 07:34:00;;;;;;;;;;;11.60;99.90;;;9.99;100.00;101181.31;4913131;29;20029;-81
2021/12/31 07:36:27;;;;;;;;;;;10.00;99.90;;;9.90;100.00;101177.88;4913620;29;20291;-82
2021/12/31 07:39:05;;;;;;;;;;;10.10;99.90;;;9.87;100.00;101177.06;4898101;28;19931;-82
2021/12/31 07:41:32;;;;;;;;;;;9.90;99.90;;;9.85;100.00;101176.19;4915112;29;19926;-80
2021/12/31 07:43:59;;;;;;;;;;;10.40;99.90;;;9.78;100.00;101178.84;4928307;29;19930;-82
2021/12/31 07:46:26;;;;;;;;;;;11.70;99.90;;;9.81;100.00;101190.22;4929111;29;20804;-81
2021/12/31 07:48:56;;;;;;;;;;;9.90;99.90;;;9.79;100.00;101191.13;4913308;29;20726;-83
2021/12/31 07:51:23;;;;;;;;;;;9.80;99.90;;;9.81;100.00;101191.13;4913249;29;19957;-82
2021/12/31 07:53:50;;;;;;;;;;;9.90;99.90;;;9.79;100.00;101196.38;4928087;29;19931;-81
2021/12/31 07:56:20;;;;;;;;;;;9.80;99.90;;;9.78;100.00;101199.03;4913221;29;19931;-82
2021/12/31 07:58:47;;;;;;;;;;;11.50;99.90;;;9.78;100.00;101199.03;4929149;29;19934;-81
2021/12/31 08:01:14;;;;;;;;;;;10.00;99.90;;;9.80;100.00;101199.88;4912855;29;19931;-81
2021/12/31 08:03:41;;;;;;;;;;;11.30;99.90;;;9.80;100.00;101197.25;4935455;29;20680;-81
2021/12/31 08:06:08;;;;;;;;;;;9.70;99.90;;;9.78;100.00;101188.50;4915500;29;20032;-79
2021/12/31 08:08:38;;;;;;;;;;;9.90;99.90;;;9.82;100.00;101199.84;4947266;29;20587;-81
2021/12/31 08:11:06;;;;;;;;;;;8.70;99.90;;;9.76;100.00;101200.78;4931350;29;19934;-79
2021/12/31 08:13:33;;;;;;;;;;;10.50;99.90;;;9.73;100.00;101199.06;4961711;28;19931;-81
2021/12/31 08:16:00;;;;;;;;;;;9.90;99.90;;;9.68;100.00;101199.97;4965871;28;19930;-81
2021/12/31 08:18:27;;;;;;;;;;;9.80;99.90;;;9.73;100.00;101208.69;4933971;28;19930;-81
2021/12/31 08:20:57;;;;;;;;;;;9.80;99.90;;;9.69;100.00;101199.97;4949236;28;19930;-81
2021/12/31 08:23:24;;;;;;;;;;;9.80;99.90;;;9.72;100.00;101202.56;4947873;28;19976;-80
2021/12/31 08:25:51;;;;;;;;;;;9.80;99.90;;;9.71;100.00;101203.44;4949458;28;19926;-78
2021/12/31 08:28:18;;;;;;;;;;;12.00;99.90;;;9.76;100.00;101198.16;4949542;28;20568;-81
2021/12/31 08:30:46;;;;;;;;;;;9.80;99.90;;;9.77;100.00;101185.00;4949551;28;20036;-80
2021/12/31 08:33:13;;;;;;;;;;;10.30;99.90;;;9.82;100.00;101177.09;4965174;28;19930;-81
2021/12/31 08:35:39;;;;;;;;;;;9.90;99.90;;;9.78;100.00;101183.25;4950052;28;20481;-80
2021/12/31 08:38:06;;;;;;;;;;;10.10;99.90;;;9.77;100.00;101186.78;4949368;28;19937;-80
2021/12/31 08:40:33;;;;;;;;;;;9.80;99.90;;;9.78;100.00;101188.50;4949631;28;20442;-79
2021/12/31 08:43:02;;;;;;;;;;;10.00;99.90;;;9.72;100.00;101176.28;4964501;28;19933;-81
2021/12/31 08:45:31;;;;;;;;;;;11.90;99.90;;;9.79;100.00;101182.38;4949799;28;20453;-82
2021/12/31 08:47:59;;;;;;;;;;;9.90;99.90;;;9.81;100.00;101177.97;4933691;28;20057;-82
2021/12/31 08:50:27;;;;;;;;;;;12.10;99.90;;;9.81;100.00;101187.59;4949554;28;19973;-80
2021/12/31 08:52:54;;;;;;;;;;;9.90;99.90;;;9.81;100.00;101177.97;4932751;28;20021;-80
2021/12/31 08:55:21;;;;;;;;;;;9.90;99.90;;;9.79;100.00;101164.81;4965488;28;19976;-80
2021/12/31 08:57:48;;;;;;;;;;;9.60;99.90;;;9.86;100.00;101176.16;4933959;28;19937;-78
2021/12/31 09:00:16;;;;;;;;;;;10.90;99.90;;;9.86;100.00;101175.31;4933934;28;20520;-79
2021/12/31 09:02:45;;;;;;;;;;;9.90;99.90;;;9.90;100.00;101174.41;4932408;28;19945;-80
2021/12/31 09:05:13;;;;;;;;;;;9.30;99.90;;;9.89;100.00;101165.63;4948803;28;19933;-78
2021/12/31 09:07:39;;;;;;;;;;;11.20;99.90;;;9.90;100.00;101177.03;4949272;28;20626;-80
2021/12/31 09:10:24;;;;;;;;;;;10.00;99.90;;;9.92;100.00;101176.13;4950598;28;19922;-79
2021/12/31 09:12:51;;;;;;;;;;;10.00;99.90;;;9.90;100.00;101161.25;4936857;28;19934;-81
2021/12/31 09:15:18;;;;;;;;;;;10.00;99.90;;;9.93;100.00;101155.97;4945047;28;19937;-81
2021/12/31 09:17:45;;;;;;;;;;;10.10;99.90;;;9.92;100.00;101163.00;4946935;28;20474;-80
2021/12/31 09:20:12;;;;;;;;;;;10.10;99.90;;;10.01;100.00;101177.81;4945483;28;19931;-80
2021/12/31 09:22:42;;;;;;;;;;;10.10;99.90;;;10.02;100.00;101174.28;4928383;29;20664;-80
2021/12/31 09:25:09;;;;;;;;;;;10.10;99.90;;;10.03;100.00;101173.41;4944952;28;20000;-80
2021/12/31 09:27:39;;;;;;;;;;;10.70;99.90;;;10.08;100.00;101181.25;4945665;29;19941;-80
2021/12/31 09:30:10;;;;;;;;;;;10.10;99.90;;;10.11;100.00;101180.34;4945011;29;19973;-80
2021/12/31 09:32:37;;;;;;;;;;;10.20;99.90;;;10.10;100.00;101187.38;4945855;28;19953;-82
2021/12/31 09:35:05;;;;;;;;;;;10.20;99.90;;;10.16;100.00;101191.72;4931130;29;20591;-80
2021/12/31 09:37:32;;;;;;;;;;;10.30;99.90;;;10.19;100.00;101186.41;4962737;28;20025;-82
2021/12/31 09:39:59;;;;;;;;;;;10.30;99.90;;;10.20;100.00;101185.53;4962864;28;19930;-80
2021/12/31 09:42:26;;;;;;;;;;;10.20;99.90;;;10.29;100.00;101188.06;4946078;29;19941;-80
2021/12/31 09:44:54;;;;;;;;;;;12.00;99.90;;;10.31;100.00;101199.47;4946048;29;20516;-80
2021/12/31 09:47:21;;;;;;;;;;;9.60;99.90;;;10.32;100.00;101195.06;4930581;29;19931;-82
2021/12/31 09:49:48;;;;;;;;;;;11.60;99.90;;;10.37;100.00;101190.59;4946196;29;19941;-82
2021/12/31 09:52:17;;;;;;;;;;;10.60;99.90;;;10.46;100.00;101190.56;4945782;29;19930;-83
2021/12/31 09:54:48;;;;;;;;;;;10.50;99.90;;;10.50;100.00;101184.38;4945004;28;19964;-82
2021/12/31 09:57:19;;;;;;;;;;;10.50;99.90;;;10.45;100.00;101162.50;4946120;29;19930;-83
2021/12/31 09:59:47;;;;;;;;;;;10.50;99.90;;;10.46;100.00;101166.88;4946469;28;19931;-83
2021/12/31 10:02:15;;;;;;;;;;;10.60;99.90;;;10.52;100.00;101154.53;4929597;28;19931;-80
2021/12/31 10:04:57;;;;;;;;;;;10.60;99.90;;;10.59;100.00;101166.75;4945470;29;20440;-82
2021/12/31 10:07:25;;;;;;;;;;;8.70;99.90;;;10.61;100.00;101165.84;4961748;28;20029;-82
2021/12/31 10:10:13;;;;;;;;;;;12.60;99.90;;;10.72;100.00;101157.81;4947346;29;19931;-82
2021/12/31 10:13:09;;;;;;;;;;;10.70;99.90;;;10.79;100.00;101156.00;4945953;28;19930;-82
2021/12/31 10:15:40;;;;;;;;;;;10.80;99.90;;;10.85;100.00;101147.13;4944867;29;19950;-81
2021/12/31 10:18:15;;;;;;;;;;;10.90;99.90;;;10.90;100.00;101140.91;4931294;28;20062;-82
2021/12/31 10:20:52;;;;;;;;;;;10.90;99.90;;;10.92;100.00;101139.13;4932346;29;19927;-81
2021/12/31 10:23:19;;;;;;;;;;;10.90;99.90;;;10.98;100.00;101132.06;4932204;28;19930;-81
2021/12/31 10:25:47;;;;;;;;;;;11.10;99.90;;;11.06;100.00;101135.44;4929461;29;19938;-81
2021/12/31 10:28:16;;;;;;;;;;;11.10;99.90;;;11.12;100.00;101135.38;4913523;29;19930;-80
2021/12/31 10:30:43;;;;;;;;;;;11.10;99.90;;;11.20;100.00;101138.75;4929232;29;19930;-81
2021/12/31 10:33:11;;;;;;;;;;;11.10;99.90;;;11.19;100.00;101147.56;4929009;28;20435;-82
2021/12/31 10:35:43;;;;;;;;;;;11.40;99.90;;;11.25;100.00;101143.97;4929420;29;20045;-81
2021/12/31 10:38:13;;;;;;;;;;;9.90;99.90;;;11.39;100.00;101146.38;4929823;29;20028;-81
2021/12/31 10:40:46;;;;;;;;;;;11.70;99.90;;;11.46;100.00;101148.03;4929583;29;19931;-80
2021/12/31 10:43:25;;;;;;;;;;;11.30;99.90;;;11.56;100.00;101132.97;4913454;28;19926;-82
2021/12/31 10:46:01;;;;;;;;;;;12.20;99.90;;;11.68;100.00;101131.03;4930868;29;19934;-81
2021/12/31 10:48:51;;;;;;;;;;;11.50;99.90;;;11.79;100.00;101129.09;4929817;29;19937;-80
2021/12/31 10:51:34;;;;;;;;;;;11.70;99.90;;;11.99;100.00;101128.72;4945618;29;19932;-81
2021/12/31 10:54:20;;;;;;;;;;;11.80;99.90;;;12.16;100.00;101140.75;4915785;29;19973;-82
2021/12/31 10:56:47;;;;;;;;;;;11.90;99.90;;;12.20;100.00;101140.69;4944910;29;20451;-82
2021/12/31 10:59:14;;;;;;;;;;;12.10;99.90;;;12.17;100.00;101117.00;4929373;29;19938;-82
2021/12/31 11:01:41;;;;;;;;;;;12.20;99.90;;;12.31;100.00;101106.19;4928688;29;19926;-82
2021/12/31 11:04:10;;;;;;;;;;;10.80;99.90;;;12.39;100.00;101111.31;4944437;28;19931;-81
2021/12/31 11:06:40;;;;;;;;;;;12.30;99.90;;;12.54;100.00;101122.47;4913265;29;20456;-82
2021/12/31 11:09:08;;;;;;;;;;;12.40;99.90;;;12.61;100.00;101122.31;4929115;29;20329;-80
2021/12/31 11:11:35;;;;;;;;;;;12.50;99.90;;;12.64;100.00;101129.31;4929515;29;19931;-81
2021/12/31 11:14:02;;;;;;;;;;;12.50;99.90;;;12.60;100.00;101125.00;4913644;28;20375;-82
2021/12/31 11:16:29;;;;;;;;;;;13.10;99.90;;;12.85;100.00;101135.91;4929012;29;20312;-80